createdAt,value
2019-02-15T00:03:35.257Z,2.69
2019-02-15T00:06:02.802Z,2.69
2019-02-15T00:08:49.162Z,2.78
2019-02-15T00:11:17.011Z,2.78
2019-02-15T00:13:44.847Z,2.85
2019-02-15T00:16:12.301Z,2.83
2019-02-15T00:18:58.688Z,2.72
2019-02-15T00:21:45.274Z,2.59
2019-02-15T00:26:45.342Z,2.22
2019-02-15T00:29:13.217Z,2.22
2019-02-15T00:31:40.886Z,2.09
2019-02-15T00:34:08.448Z,2.02
2019-02-15T00:36:36.490Z,2.02
2019-02-15T00:39:04.341Z,1.92
2019-02-15T00:41:31.902Z,1.92
2019-02-15T00:43:59.688Z,1.90
2019-02-15T00:46:46.364Z,1.92
2019-02-15T00:52:13.332Z,1.86
2019-02-15T00:54:59.629Z,1.82
2019-02-15T00:57:46.324Z,1.82
2019-02-15T01:00:32.662Z,1.72
2019-02-15T01:06:10.428Z,1.71
2019-02-15T01:08:57.085Z,1.66
2019-02-15T01:11:28.547Z,1.62
2019-02-15T01:13:56.305Z,1.62
2019-02-15T01:16:23.853Z,1.61
2019-02-15T01:19:22.439Z,1.62
2019-02-15T01:21:39.350Z,1.62
2019-02-15T01:24:06.951Z,1.61
2019-02-15T01:26:53.317Z,1.59
2019-02-15T01:29:39.722Z,1.58
2019-02-15T01:32:26.025Z,1.58
2019-02-15T01:35:12.500Z,1.59
2019-02-15T01:37:58.835Z,1.59
2019-02-15T01:40:45.196Z,1.61
2019-02-15T01:43:39.565Z,1.65
2019-02-15T01:46:06.656Z,1.69
2019-02-15T01:48:34.326Z,1.72
2019-02-15T01:51:01.993Z,1.74
2019-02-15T01:53:29.512Z,1.75
2019-02-15T01:56:15.870Z,1.72
2019-02-15T01:58:43.540Z,1.72
2019-02-15T02:03:59.158Z,1.62
2019-02-15T02:06:27.073Z,1.48
2019-02-15T02:09:15.148Z,1.43
2019-02-15T02:12:01.494Z,1.39
2019-02-15T02:14:29.105Z,1.39
2019-02-15T02:17:17.243Z,1.40
2019-02-15T02:19:44.860Z,1.40
2019-02-15T02:22:31.466Z,1.43
2019-02-15T02:25:17.770Z,1.47
2019-02-15T02:28:04.178Z,1.48
2019-02-15T02:30:31.747Z,1.47
2019-02-15T02:32:59.406Z,1.47
2019-02-15T02:35:27.060Z,1.46
2019-02-15T02:37:54.678Z,1.46
2019-02-15T02:40:22.579Z,1.39
2019-02-15T02:43:09.000Z,1.34
2019-02-15T02:45:55.368Z,1.27
2019-02-15T02:48:42.060Z,1.26
2019-02-15T02:51:28.531Z,1.27
2019-02-15T02:54:15.239Z,1.25
2019-02-15T02:56:42.755Z,1.25
2019-02-15T02:59:29.362Z,1.22
2019-02-15T03:01:56.898Z,1.21
2019-02-15T03:04:24.492Z,1.21
2019-02-15T03:06:51.999Z,1.20
2019-02-15T03:09:38.320Z,1.17
2019-02-15T03:12:05.793Z,1.11
2019-02-15T03:14:33.476Z,0.96
2019-02-15T03:17:01.102Z,0.96
2019-02-15T03:19:47.507Z,0.89
2019-02-15T03:22:33.812Z,0.89
2019-02-15T03:25:20.502Z,0.79
2019-02-15T03:27:48.085Z,0.75
2019-02-15T03:30:15.738Z,0.75
2019-02-15T03:32:45.051Z,0.70
2019-02-15T03:35:31.370Z,0.70
2019-02-15T03:38:17.796Z,0.77
2019-02-15T03:41:04.224Z,0.79
2019-02-15T03:43:50.636Z,0.81
2019-02-15T03:49:25.024Z,0.79
2019-02-15T03:51:52.667Z,0.79
2019-02-15T03:54:20.504Z,0.83
2019-02-15T03:56:48.197Z,0.90
2019-02-15T03:59:15.749Z,0.96
2019-02-15T04:01:43.370Z,0.99
2019-02-15T04:04:29.808Z,1.02
2019-02-15T04:06:57.434Z,1.02
2019-02-15T04:09:25.037Z,1.06
2019-02-15T04:11:52.998Z,1.04
2019-02-15T04:14:41.060Z,1.03
2019-02-15T04:17:08.701Z,1.03
2019-02-15T04:19:36.593Z,1.02
2019-02-15T04:22:04.117Z,1.05
2019-02-15T04:24:31.717Z,1.05
2019-02-15T04:26:59.352Z,1.05
2019-02-15T04:34:44.957Z,0.95
2019-02-15T04:37:13.137Z,0.92
2019-02-15T04:39:59.942Z,0.97
2019-02-15T04:42:27.600Z,1.06
2019-02-15T04:44:55.272Z,1.06
2019-02-15T04:47:23.036Z,1.13
2019-02-15T04:49:50.679Z,1.17
2019-02-15T04:52:18.361Z,1.18
2019-02-15T04:54:46.271Z,1.18
2019-02-15T04:57:16.745Z,1.15
2019-02-15T04:59:44.465Z,1.15
2019-02-15T05:02:12.028Z,1.11
2019-02-15T05:04:58.473Z,1.00
2019-02-15T05:07:26.143Z,1.00
2019-02-15T05:10:12.550Z,0.91
2019-02-15T05:12:40.109Z,0.91
2019-02-15T05:15:07.782Z,0.91
2019-02-15T05:17:54.482Z,0.98
2019-02-15T05:20:22.117Z,1.04
2019-02-15T05:23:10.506Z,1.07
2019-02-15T05:25:38.249Z,1.07
2019-02-15T05:28:24.686Z,1.11
2019-02-15T05:30:52.273Z,1.12
2019-02-15T05:33:19.875Z,1.12
2019-02-15T05:35:47.748Z,1.15
2019-02-15T05:38:15.293Z,1.15
2019-02-15T05:40:43.136Z,1.18
2019-02-15T05:43:29.487Z,1.15
2019-02-15T05:46:15.873Z,1.10
2019-02-15T05:49:02.237Z,1.11
2019-02-15T05:51:31.865Z,1.11
2019-02-15T05:53:59.657Z,1.11
2019-02-15T05:56:27.730Z,1.08
2019-02-15T05:59:14.079Z,1.00
2019-02-15T06:01:41.760Z,0.93
2019-02-15T06:04:09.335Z,0.93
2019-02-15T06:06:37.146Z,0.84
2019-02-15T06:09:23.595Z,0.82
2019-02-15T06:12:10.004Z,0.82
2019-02-15T06:14:37.656Z,0.83
2019-02-15T06:17:05.459Z,0.89
2019-02-15T06:19:33.161Z,0.89
2019-02-15T06:22:00.835Z,0.89
2019-02-15T06:24:47.218Z,0.99
2019-02-15T06:30:01.461Z,1.06
2019-02-15T06:32:41.070Z,1.11
2019-02-15T06:34:58.336Z,1.13
2019-02-15T06:37:44.771Z,1.11
2019-02-15T06:40:31.201Z,1.08
2019-02-15T06:43:19.890Z,1.08
2019-02-15T06:46:06.231Z,1.00
2019-02-15T06:48:52.647Z,1.00
2019-02-15T06:54:27.992Z,1.00
2019-02-15T06:56:55.516Z,1.00
2019-02-15T06:59:41.843Z,1.00
2019-02-15T07:02:28.260Z,1.03
2019-02-15T07:05:28.924Z,1.07
2019-02-15T07:10:38.402Z,1.15
2019-02-15T07:13:27.613Z,1.42
2019-02-15T07:16:14.049Z,1.42
2019-02-15T07:19:00.492Z,1.64
2019-02-15T07:21:46.916Z,1.68
2019-02-15T07:32:50.855Z,1.74
2019-02-15T07:35:06.174Z,1.74
2019-02-15T07:37:52.577Z,1.87
2019-02-15T07:40:20.531Z,1.87
2019-02-15T07:43:05.040Z,2.36
2019-02-15T07:45:20.130Z,2.62
2019-02-15T07:47:47.720Z,2.82
2019-02-15T07:50:34.115Z,2.82
2019-02-15T07:53:20.547Z,2.98
2019-02-15T07:56:06.955Z,3.06
2019-02-15T07:58:37.184Z,3.06
2019-02-15T08:01:23.526Z,3.25
2019-02-15T08:04:10.366Z,3.25
2019-02-15T08:06:38.200Z,3.31
2019-02-15T08:09:24.647Z,3.49
2019-02-15T08:12:10.997Z,3.49
2019-02-15T08:14:38.623Z,4.07
2019-02-15T08:17:25.035Z,4.07
2019-02-15T08:19:52.618Z,4.44
2019-02-15T08:22:20.446Z,4.81
2019-02-15T08:24:48.074Z,5.09
2019-02-15T08:27:17.312Z,5.31
2019-02-15T08:30:05.371Z,5.43
2019-02-15T08:32:34.588Z,5.54
2019-02-15T08:35:02.439Z,5.71
2019-02-15T08:37:32.370Z,6.20
2019-02-15T08:39:59.941Z,6.20
2019-02-15T08:43:00.815Z,6.78
2019-02-15T08:45:49.851Z,7.22
2019-02-15T08:48:25.063Z,7.22
2019-02-15T08:50:52.648Z,8.10
2019-02-15T08:53:39.052Z,8.48
2019-02-15T08:56:06.682Z,8.92
2019-02-15T08:58:53.124Z,8.92
2019-02-15T09:01:20.731Z,9.33
2019-02-15T09:03:48.600Z,9.66
2019-02-15T09:06:16.283Z,9.76
2019-02-15T09:08:43.836Z,9.96
2019-02-15T09:11:25.800Z,9.96
2019-02-15T09:13:43.192Z,10.13
2019-02-15T09:18:45.482Z,10.20
2019-02-15T09:21:13.027Z,10.33
2019-02-15T09:23:40.598Z,10.40
2019-02-15T09:26:08.499Z,10.40
2019-02-15T09:28:56.181Z,10.41
2019-02-15T09:31:27.027Z,10.40
2019-02-15T09:33:57.022Z,10.33
2019-02-15T09:36:24.670Z,10.17
2019-02-15T09:39:11.092Z,10.17
2019-02-15T09:41:38.621Z,9.99
2019-02-15T09:44:06.366Z,9.99
2019-02-15T09:46:55.866Z,9.93
2019-02-15T09:49:24.333Z,9.90
2019-02-15T09:52:11.431Z,9.87
2019-02-15T09:54:39.060Z,9.97
2019-02-15T09:57:28.413Z,10.06
2019-02-15T09:59:58.731Z,10.06
2019-02-15T10:02:28.992Z,10.22
2019-02-15T10:05:15.759Z,10.73
2019-02-15T10:08:02.164Z,10.73
2019-02-15T10:10:31.811Z,11.34
2019-02-15T10:12:59.741Z,13.00
2019-02-15T10:15:27.266Z,13.00
2019-02-15T10:17:56.893Z,15.22
2019-02-15T10:20:43.262Z,15.22
2019-02-15T10:23:13.197Z,16.65
2019-02-15T10:25:52.551Z,19.58
2019-02-15T10:28:13.524Z,19.58
2019-02-15T10:30:41.129Z,20.76
2019-02-15T10:33:08.630Z,22.75
2019-02-15T10:35:55.073Z,22.75
2019-02-15T10:38:22.712Z,23.36
2019-02-15T10:40:50.288Z,24.07
2019-02-15T10:43:18.081Z,24.51
2019-02-15T10:45:47.468Z,24.98
2019-02-15T10:48:15.123Z,25.35
2019-02-15T10:50:47.751Z,25.95
2019-02-15T10:53:15.281Z,26.30
2019-02-15T10:55:42.860Z,26.60
2019-02-15T10:58:29.282Z,27.03
2019-02-15T11:04:02.057Z,27.97
2019-02-15T11:06:29.607Z,28.33
2019-02-15T11:09:16.060Z,28.77
2019-02-15T11:11:43.615Z,28.70
2019-02-15T11:14:29.945Z,28.68
2019-02-15T11:16:57.575Z,28.82
2019-02-15T11:19:27.158Z,28.96
2019-02-15T11:21:54.768Z,29.06
2019-02-15T11:24:22.373Z,28.94
2019-02-15T11:29:25.499Z,29.00
2019-02-15T11:32:05.505Z,29.03
2019-02-15T11:34:47.489Z,29.06
2019-02-15T11:40:20.303Z,29.04
2019-02-15T11:43:01.984Z,29.04
2019-02-15T11:45:36.775Z,29.11
2019-02-15T11:48:04.675Z,28.83
2019-02-15T11:50:32.366Z,28.65
2019-02-15T11:53:00.177Z,28.71
2019-02-15T11:55:27.821Z,28.64
2019-02-15T12:00:49.076Z,28.02
2019-02-15T12:03:16.836Z,27.67
2019-02-15T12:08:18.870Z,27.81
2019-02-15T12:10:46.399Z,27.58
2019-02-15T12:13:16.639Z,27.38
2019-02-15T12:16:16.966Z,27.08
2019-02-15T12:18:32.743Z,27.08
2019-02-15T12:21:00.296Z,27.03
2019-02-15T12:23:46.732Z,27.01
2019-02-15T12:26:14.275Z,26.92
2019-02-15T12:28:41.891Z,26.60
2019-02-15T12:31:28.295Z,26.44
2019-02-15T12:33:55.909Z,26.42
2019-02-15T12:36:23.529Z,26.24
2019-02-15T12:38:51.357Z,26.00
2019-02-15T12:41:18.885Z,25.98
2019-02-15T12:43:46.489Z,25.80
2019-02-15T12:46:14.379Z,25.50
2019-02-15T12:48:41.971Z,25.42
2019-02-15T12:51:11.529Z,25.40
2019-02-15T12:53:57.989Z,24.96
2019-02-15T13:01:50.130Z,24.34
2019-02-15T13:04:38.264Z,24.10
2019-02-15T13:07:08.111Z,24.10
2019-02-15T13:09:54.507Z,24.15
2019-02-15T13:12:40.822Z,24.19
2019-02-15T13:15:08.715Z,24.14
2019-02-15T13:17:36.313Z,23.79
2019-02-15T13:20:03.893Z,23.05
2019-02-15T13:22:34.578Z,23.05
2019-02-15T13:25:14.410Z,22.49
2019-02-15T13:27:31.497Z,22.49
2019-02-15T13:29:59.329Z,22.22
2019-02-15T13:32:26.948Z,21.83
2019-02-15T13:34:57.194Z,21.83
2019-02-15T13:37:57.777Z,21.57
2019-02-15T13:40:15.425Z,21.39
2019-02-15T13:43:02.969Z,21.39
2019-02-15T13:45:32.837Z,21.31
2019-02-15T13:48:19.288Z,21.34
2019-02-15T13:53:22.349Z,21.29
2019-02-15T13:55:50.183Z,21.17
2019-02-15T14:01:24.055Z,21.09
2019-02-15T14:03:51.672Z,21.12
2019-02-15T14:06:19.781Z,21.33
2019-02-15T14:08:47.752Z,21.55
2019-02-15T14:11:17.831Z,21.79
2019-02-15T14:13:45.638Z,21.89
2019-02-15T14:16:13.288Z,21.81
2019-02-15T14:18:41.178Z,21.73
2019-02-15T14:21:09.077Z,21.64
2019-02-15T14:23:36.689Z,21.50
2019-02-15T14:26:18.418Z,21.39
2019-02-15T14:28:34.326Z,21.41
2019-02-15T14:31:02.265Z,21.48
2019-02-15T14:33:32.172Z,21.55
2019-02-15T14:36:21.661Z,21.61
2019-02-15T14:39:20.497Z,21.72
2019-02-15T14:44:12.236Z,21.81
2019-02-15T14:49:28.193Z,21.83
2019-02-15T14:52:08.163Z,21.95
2019-02-15T14:54:25.149Z,22.09
2019-02-15T14:57:23.211Z,22.24
2019-02-15T15:02:29.184Z,22.42
2019-02-15T15:04:59.235Z,22.51
2019-02-15T15:07:45.572Z,22.51
2019-02-15T15:10:13.146Z,22.54
2019-02-15T15:12:40.947Z,22.59
2019-02-15T15:20:19.219Z,22.66
2019-02-15T15:22:46.985Z,22.66
2019-02-15T15:25:18.064Z,22.92
2019-02-15T15:27:45.892Z,22.92
2019-02-15T15:30:13.564Z,23.01
2019-02-15T15:32:45.058Z,22.96
2019-02-15T15:35:16.175Z,22.44
2019-02-15T15:37:48.162Z,21.61
2019-02-15T15:40:15.970Z,20.83
2019-02-15T15:42:47.289Z,20.16
2019-02-15T15:45:14.894Z,19.62
2019-02-15T15:47:42.458Z,19.17
2019-02-15T15:50:10.333Z,18.31
2019-02-15T15:52:37.959Z,18.31
2019-02-15T15:55:05.524Z,17.98
2019-02-15T15:57:34.421Z,17.65
2019-02-15T16:00:02.310Z,17.36
2019-02-15T16:02:31.786Z,17.15
2019-02-15T16:04:59.720Z,16.95
2019-02-15T16:07:30.066Z,16.77
2019-02-15T16:09:57.679Z,16.62
2019-02-15T16:12:28.216Z,16.46
2019-02-15T16:14:55.755Z,16.33
2019-02-15T16:17:26.375Z,16.13
2019-02-15T16:19:55.785Z,15.73
2019-02-15T16:22:25.959Z,15.73
2019-02-15T16:24:53.623Z,15.13
2019-02-15T16:27:21.258Z,14.85
2019-02-15T16:29:48.871Z,14.85
2019-02-15T16:32:21.301Z,14.63
2019-02-15T16:34:48.837Z,14.40
2019-02-15T16:37:18.864Z,14.28
2019-02-15T16:39:52.349Z,14.12
2019-02-15T16:42:20.003Z,14.06
2019-02-15T16:44:48.048Z,13.98
2019-02-15T16:47:15.629Z,13.81
2019-02-15T16:49:44.449Z,13.67
2019-02-15T16:52:13.539Z,13.53
2019-02-15T16:54:45.059Z,13.42
2019-02-15T16:57:14.674Z,13.28
2019-02-15T16:59:45.087Z,13.16
2019-02-15T17:02:12.642Z,12.85
2019-02-15T17:04:40.270Z,12.85
2019-02-15T17:07:09.481Z,12.77
2019-02-15T17:09:37.272Z,12.70
2019-02-15T17:12:09.845Z,12.74
2019-02-15T17:14:37.672Z,12.62
2019-02-15T17:17:06.929Z,12.49
2019-02-15T17:19:34.472Z,12.31
2019-02-15T17:22:02.248Z,12.18
2019-02-15T17:24:31.893Z,12.18
2019-02-15T17:27:01.196Z,12.08
2019-02-15T17:29:29.072Z,11.89
2019-02-15T17:31:59.671Z,11.89
2019-02-15T17:34:27.269Z,11.59
2019-02-15T17:36:59.525Z,11.59
2019-02-15T17:39:30.183Z,11.49
2019-02-15T17:41:58.152Z,11.54
2019-02-15T17:44:26.015Z,11.57
2019-02-15T17:46:53.591Z,11.57
2019-02-15T17:49:22.885Z,11.65
2019-02-15T17:51:52.830Z,11.60
2019-02-15T17:54:21.578Z,11.60
2019-02-15T17:56:49.193Z,11.52
2019-02-15T17:59:17.027Z,11.42
2019-02-15T18:01:44.647Z,11.31
2019-02-15T18:04:13.876Z,11.21
2019-02-15T18:06:41.788Z,11.21
2019-02-15T18:09:09.375Z,11.00
2019-02-15T18:11:40.467Z,11.00
2019-02-15T18:14:08.319Z,10.93
2019-02-15T18:16:37.742Z,10.89
2019-02-15T18:19:10.240Z,10.89
2019-02-15T18:21:36.468Z,10.91
2019-02-15T18:24:05.161Z,11.04
2019-02-15T18:26:32.623Z,11.04
2019-02-15T18:29:02.861Z,11.03
2019-02-15T18:31:30.436Z,11.00
2019-02-15T18:34:04.199Z,10.94
2019-02-15T18:36:37.414Z,10.89
2019-02-15T18:39:13.163Z,10.89
2019-02-15T18:41:41.109Z,10.75
2019-02-15T18:44:12.510Z,10.75
2019-02-15T18:46:42.434Z,10.61
2019-02-15T18:49:18.978Z,10.61
2019-02-15T18:51:39.522Z,10.58
2019-02-15T18:54:07.459Z,10.75
2019-02-15T18:56:39.973Z,10.82
2019-02-15T18:59:07.576Z,10.79
2019-02-15T19:01:36.278Z,11.06
2019-02-15T19:04:09.117Z,11.06
2019-02-15T19:06:38.936Z,11.44
2019-02-15T19:09:13.085Z,11.57
2019-02-15T19:11:38.310Z,11.57
2019-02-15T19:14:06.275Z,11.63
2019-02-15T19:16:36.932Z,11.64
2019-02-15T19:19:04.819Z,11.61
2019-02-15T19:21:33.708Z,11.64
2019-02-15T19:24:01.301Z,11.65
2019-02-15T19:26:34.990Z,11.65
2019-02-15T19:29:02.665Z,11.66
2019-02-15T19:31:31.443Z,11.66
2019-02-15T19:34:01.422Z,11.56
2019-02-15T19:36:31.616Z,11.44
2019-02-15T19:38:58.761Z,11.44
2019-02-15T19:41:28.686Z,11.35
2019-02-15T19:43:57.632Z,11.35
2019-02-15T19:46:25.159Z,11.36
2019-02-15T19:48:53.214Z,11.44
2019-02-15T19:51:20.841Z,11.44
2019-02-15T19:53:50.472Z,11.65
2019-02-15T19:56:18.514Z,11.65
2019-02-15T19:58:52.183Z,11.72
2019-02-15T20:01:19.817Z,11.82
2019-02-15T20:03:47.688Z,11.97
2019-02-15T20:06:15.253Z,12.06
2019-02-15T20:08:42.975Z,12.12
2019-02-15T20:11:13.731Z,12.12
2019-02-15T20:13:41.332Z,12.08
2019-02-15T20:19:14.102Z,11.79
2019-02-15T20:21:42.042Z,11.79
2019-02-15T20:27:13.503Z,11.60
2019-02-15T20:32:46.414Z,11.49
2019-02-15T20:35:32.843Z,11.28
2019-02-15T20:38:00.460Z,11.10
2019-02-15T20:40:47.222Z,10.61
2019-02-15T20:43:19.256Z,10.61
2019-02-15T20:46:05.691Z,10.35
2019-02-15T20:49:06.101Z,9.88
2019-02-15T20:51:40.519Z,9.77
2019-02-15T20:54:39.578Z,9.77
2019-02-15T20:57:14.976Z,9.68
2019-02-15T20:59:49.759Z,9.76
2019-02-15T21:02:36.121Z,9.77
2019-02-15T21:05:22.467Z,9.80
2019-02-15T21:08:11.331Z,9.86
2019-02-15T21:10:57.737Z,9.85
2019-02-15T21:13:44.120Z,9.95
2019-02-15T21:16:11.617Z,9.95
2019-02-15T21:18:58.050Z,10.04
2019-02-15T21:21:44.466Z,10.02
2019-02-15T21:24:30.874Z,10.05
2019-02-15T21:30:03.636Z,10.26
2019-02-15T21:32:31.385Z,10.33
2019-02-15T21:34:59.203Z,10.22
2019-02-15T21:37:29.818Z,10.22
2019-02-15T21:39:57.400Z,10.05
2019-02-15T21:42:25.385Z,10.05
2019-02-15T21:44:53.221Z,9.99
2019-02-15T21:47:24.088Z,9.96
2019-02-15T21:49:53.193Z,9.94
2019-02-15T21:52:20.703Z,10.17
2019-02-15T21:54:48.192Z,10.24
2019-02-15T21:57:16.045Z,10.24
2019-02-15T21:59:43.600Z,10.32
2019-02-15T22:02:11.223Z,10.32
2019-02-15T22:04:57.600Z,10.34
2019-02-15T22:10:21.801Z,10.32
2019-02-15T22:13:08.215Z,10.20
2019-02-15T22:15:54.660Z,10.20
2019-02-15T22:21:29.047Z,10.18
2019-02-15T22:23:56.789Z,10.18
2019-02-15T22:26:43.164Z,10.27
2019-02-15T22:29:13.280Z,10.31
2019-02-15T22:34:32.395Z,10.35
2019-02-15T22:37:05.586Z,10.39
2019-02-15T22:39:52.417Z,10.39
2019-02-15T22:42:39.046Z,10.42
2019-02-15T22:45:27.853Z,10.42
2019-02-15T22:48:02.672Z,10.41
2019-02-15T22:50:36.086Z,10.33
2019-02-15T22:53:01.808Z,10.33
2019-02-15T22:55:29.354Z,10.24
2019-02-15T22:58:16.217Z,10.24
2019-02-15T23:03:59.187Z,10.35
2019-02-15T23:06:45.590Z,10.25
2019-02-15T23:09:32.266Z,10.25
2019-02-15T23:15:06.585Z,10.33
2019-02-15T23:17:52.968Z,10.33
2019-02-15T23:20:45.371Z,10.33
2019-02-15T23:23:08.647Z,10.35
2019-02-15T23:25:36.309Z,10.40
2019-02-15T23:28:35.096Z,10.44
2019-02-15T23:31:11.332Z,10.45
2019-02-15T23:33:57.671Z,10.45
2019-02-15T23:39:49.316Z,10.46
2019-02-15T23:42:35.619Z,10.41
2019-02-15T23:47:39.853Z,10.32
2019-02-15T23:50:07.514Z,10.32
2019-02-15T23:52:53.921Z,10.19
2019-02-15T23:55:40.282Z,9.89
2019-02-15T23:58:07.974Z,9.89
